Terminal Aerodrome Forecast
Issued by NWS Knoxville/Tri Cities, TN

Home | Current Version | Previous Version | Text Only | Print | Product List | Glossary On
Versions: 1 2 3 4 5 6 7 8 9 10 11 12 13 14 15 16 17 18 19 20 21 22 23 24 25 26 27 28 29 30 31 32 33 34 35 36 37 38 39
338
FTUS44 KMRX 010854 AAD
TAFTYS
TAF AMD
KTYS 010854Z 0109/0206 VRB03KT 3SM BR VCTS SCT002 BKN004 BKN040CB
      TEMPO 0109/0112 1/4SM FG VV002
     FM011200 VRB04KT P6SM SCT040 BKN150
     FM011400 21012KT P6SM SCT040 BKN250
     FM012000 23012KT P6SM VCTS SCT050CB BKN200
     FM020100 22006KT P6SM VCTS SCT050CB BKN200=

USA.gov is the U.S. government's official web portal to all federal, state and local government web resources and services.